TimeCDT,TemperatureF,Dew PointF,Humidity,Sea Level PressureIn,VisibilityMPH,Wind Direction,Wind SpeedMPH,Gust SpeedMPH,PrecipitationIn,Events,Conditions,WindDirDegrees,DateUTC
12:15 AM,77.2,74.7,92,29.88,7.0,Calm,Calm,-,N/A,Rain,Rain,0,2013-05-22 05:15:00
12:35 AM,77.0,74.8,93,29.88,7.0,Calm,Calm,-,N/A,Rain,Light Rain,0,2013-05-22 05:35:00
12:55 AM,77.0,74.7,92,29.89,7.0,Calm,Calm,-,N/A,,Overcast,0,2013-05-22 05:55:00
1:15 AM,77.0,74.7,92,29.89,7.0,Calm,Calm,-,N/A,,Overcast,0,2013-05-22 06:15:00
1:35 AM,77.0,74.8,93,29.88,7.0,Calm,Calm,-,0.03,,Overcast,0,2013-05-22 06:35:00
1:55 AM,76.6,74.7,94,29.87,5.0,Calm,Calm,-,0.03,,Overcast,0,2013-05-22 06:55:00
2:15 AM,76.5,74.7,94,29.87,7.0,Calm,Calm,-,N/A,,Overcast,0,2013-05-22 07:15:00
2:35 AM,76.5,74.7,94,29.86,7.0,Calm,Calm,-,N/A,,Overcast,0,2013-05-22 07:35:00
2:55 AM,76.6,74.5,93,29.86,7.0,Calm,Calm,-,N/A,,Overcast,0,2013-05-22 07:55:00
3:15 AM,76.8,74.5,92,29.87,7.0,Calm,Calm,-,N/A,,Overcast,0,2013-05-22 08:15:00
3:35 AM,70.3,66.9,89,29.87,10.0,NE,5.8,-,N/A,,Overcast,50,2013-05-22 08:35:00
3:55 AM,68.9,65.5,89,29.87,10.0,NNE,9.2,18.4,N/A,,Overcast,20,2013-05-22 08:55:00
4:15 AM,68.5,65.7,90,29.87,10.0,Calm,Calm,-,N/A,Rain,Light Rain,0,2013-05-22 09:15:00
4:35 AM,68.5,65.8,91,29.86,10.0,Calm,Calm,-,N/A,Rain,Light Rain,0,2013-05-22 09:35:00
4:55 AM,68.2,65.7,92,29.87,10.0,Calm,Calm,-,0.01,,Light Drizzle,0,2013-05-22 09:55:00
5:15 AM,68.4,66.0,92,29.89,10.0,North,-9999.0,-,N/A,Thunderstorm,Scattered Clouds,0,2013-05-22 10:15:00
5:35 AM,68.7,66.4,92,29.87,10.0,Calm,Calm,-,N/A,,Clear,0,2013-05-22 10:35:00
5:55 AM,70.0,67.1,91,29.86,10.0,Calm,Calm,-,N/A,Rain-Thunderstorm,Light Thunderstorms and Rain,0,2013-05-22 10:55:00
6:15 AM,70.5,68.0,92,29.86,10.0,Calm,Calm,-,N/A,Rain-Thunderstorm,Light Thunderstorms and Rain,0,2013-05-22 11:15:00
6:35 AM,71.8,70.0,94,29.84,10.0,SSE,9.2,-,N/A,Rain,Light Rain,150,2013-05-22 11:35:00
6:55 AM,73.4,69.8,88,29.86,10.0,Calm,Calm,-,N/A,Thunderstorm,Scattered Clouds,0,2013-05-22 11:55:00
7:15 AM,72.7,70.3,92,29.86,10.0,Calm,Calm,-,N/A,,Scattered Clouds,0,2013-05-22 12:15:00
7:35 AM,73.0,70.7,92,29.87,10.0,Calm,Calm,-,N/A,,Mostly Cloudy,0,2013-05-22 12:35:00
7:55 AM,74.7,72.5,93,29.87,7.0,Calm,Calm,-,N/A,,Mostly Cloudy,0,2013-05-22 12:55:00
8:15 AM,75.4,73.2,93,29.87,7.0,Calm,Calm,-,N/A,,Overcast,0,2013-05-22 13:15:00
8:35 AM,75.6,73.4,93,29.89,7.0,Calm,Calm,-,N/A,,Overcast,0,2013-05-22 13:35:00
8:55 AM,75.9,73.0,91,29.91,7.0,Calm,Calm,-,N/A,,Overcast,0,2013-05-22 13:55:00
9:15 AM,72.9,70.5,92,29.92,10.0,Calm,Calm,-,N/A,,Overcast,0,2013-05-22 14:15:00
9:35 AM,74.1,70.7,89,29.93,10.0,Calm,Calm,-,N/A,,Overcast,0,2013-05-22 14:35:00
9:55 AM,75.0,70.9,87,29.94,10.0,Calm,Calm,-,N/A,,Overcast,0,2013-05-22 14:55:00
10:15 AM,76.5,71.6,85,29.95,10.0,Calm,Calm,-,N/A,,Mostly Cloudy,0,2013-05-22 15:15:00
10:35 AM,77.0,72.0,84,29.95,10.0,Calm,Calm,-,N/A,,Scattered Clouds,0,2013-05-22 15:35:00
10:55 AM,77.9,71.8,81,29.95,10.0,Calm,Calm,-,N/A,,Scattered Clouds,0,2013-05-22 15:55:00
11:15 AM,77.9,71.2,80,29.95,10.0,Calm,Calm,-,N/A,,Overcast,0,2013-05-22 16:15:00
11:35 AM,78.1,72.0,81,29.94,10.0,Calm,Calm,-,N/A,,Overcast,0,2013-05-22 16:35:00
11:55 AM,78.6,71.4,78,29.94,10.0,Calm,Calm,-,N/A,,Overcast,0,2013-05-22 16:55:00
12:15 PM,78.8,72.1,80,29.94,10.0,Calm,Calm,-,N/A,,Overcast,0,2013-05-22 17:15:00
12:35 PM,80.6,72.1,75,29.94,10.0,Calm,Calm,-,N/A,,Overcast,0,2013-05-22 17:35:00
12:55 PM,80.8,71.8,74,29.94,10.0,Calm,Calm,-,N/A,,Overcast,0,2013-05-22 17:55:00
1:15 PM,82.4,71.1,68,29.93,10.0,Calm,Calm,-,N/A,,Scattered Clouds,0,2013-05-22 18:15:00
1:35 PM,82.9,72.5,71,29.93,10.0,Calm,Calm,-,N/A,,Mostly Cloudy,0,2013-05-22 18:35:00
1:55 PM,82.9,71.8,69,29.92,10.0,Calm,Calm,-,N/A,,Mostly Cloudy,0,2013-05-22 18:55:00
2:15 PM,83.5,72.0,68,29.92,10.0,Calm,Calm,-,N/A,,Mostly Cloudy,0,2013-05-22 19:15:00
2:35 PM,84.2,70.5,63,29.92,10.0,Calm,Calm,-,N/A,,Overcast,0,2013-05-22 19:35:00
2:55 PM,83.8,71.4,66,29.91,10.0,Calm,Calm,-,N/A,,Mostly Cloudy,0,2013-05-22 19:55:00
3:15 PM,83.5,70.9,66,29.91,10.0,Calm,Calm,-,N/A,,Mostly Cloudy,0,2013-05-22 20:15:00
3:35 PM,83.3,72.0,68,29.90,10.0,Calm,Calm,-,N/A,,Mostly Cloudy,0,2013-05-22 20:35:00
3:55 PM,84.0,72.1,67,29.90,10.0,SSE,8.1,-,N/A,,Scattered Clouds,160,2013-05-22 20:55:00
4:15 PM,83.5,72.7,70,29.90,10.0,South,10.4,-,N/A,,Clear,170,2013-05-22 21:15:00
4:35 PM,84.0,72.7,69,29.89,10.0,SE,8.1,-,N/A,,Clear,140,2013-05-22 21:35:00
4:55 PM,84.0,71.8,66,29.89,10.0,SSE,3.5,-,N/A,,Clear,150,2013-05-22 21:55:00
5:15 PM,84.0,71.2,65,29.88,10.0,Calm,Calm,-,N/A,,Clear,0,2013-05-22 22:15:00
5:35 PM,84.0,71.1,65,29.89,10.0,South,5.8,-,N/A,,Clear,190,2013-05-22 22:35:00
5:55 PM,83.3,72.3,69,29.88,10.0,SSE,9.2,-,N/A,,Scattered Clouds,150,2013-05-22 22:55:00
6:15 PM,82.4,72.1,71,29.89,10.0,SSE,8.1,-,N/A,,Clear,160,2013-05-22 23:15:00
6:35 PM,81.5,72.3,74,29.89,10.0,SSE,4.6,-,N/A,,Clear,160,2013-05-22 23:35:00
6:55 PM,81.1,72.7,75,29.89,10.0,Calm,Calm,-,N/A,,Clear,0,2013-05-22 23:55:00
7:15 PM,80.6,72.5,76,29.90,10.0,Calm,Calm,-,N/A,,Mostly Cloudy,0,2013-05-23 00:15:00
7:35 PM,79.5,72.5,79,29.90,10.0,Calm,Calm,-,N/A,,Scattered Clouds,0,2013-05-23 00:35:00
7:55 PM,78.4,72.7,82,29.90,10.0,Calm,Calm,-,N/A,,Clear,0,2013-05-23 00:55:00
8:15 PM,77.5,72.1,83,29.90,10.0,Calm,Calm,-,N/A,,Clear,0,2013-05-23 01:15:00
8:35 PM,77.0,72.5,86,29.91,10.0,Calm,Calm,-,N/A,,Clear,0,2013-05-23 01:35:00
8:55 PM,76.3,72.5,88,29.91,10.0,Calm,Calm,-,N/A,,Clear,0,2013-05-23 01:55:00
9:15 PM,76.1,72.7,89,29.92,10.0,Calm,Calm,-,N/A,,Clear,0,2013-05-23 02:15:00
9:35 PM,76.1,72.9,90,29.92,10.0,Calm,Calm,-,N/A,,Clear,0,2013-05-23 02:35:00
9:55 PM,75.6,72.9,91,29.93,10.0,Calm,Calm,-,N/A,,Clear,0,2013-05-23 02:55:00
10:15 PM,75.4,72.9,92,29.94,10.0,Calm,Calm,-,N/A,,Clear,0,2013-05-23 03:15:00
10:35 PM,75.4,72.9,92,29.95,10.0,Calm,Calm,-,N/A,,Clear,0,2013-05-23 03:35:00
10:55 PM,75.2,73.2,94,29.95,10.0,Calm,Calm,-,N/A,,Clear,0,2013-05-23 03:55:00
11:15 PM,75.4,73.4,94,29.95,10.0,Calm,Calm,-,N/A,,Scattered Clouds,0,2013-05-23 04:15:00
11:35 PM,75.4,73.4,94,29.95,7.0,Calm,Calm,-,N/A,,Scattered Clouds,0,2013-05-23 04:35:00
11:55 PM,75.4,73.6,94,29.96,7.0,Calm,Calm,-,N/A,,Clear,0,2013-05-23 04:55:00